createdAt,value
2018-02-04T00:00:02.255Z,997.13
2018-02-04T00:01:02.216Z,997.11
2018-02-04T00:02:02.231Z,997.11
2018-02-04T00:03:02.244Z,997.12
2018-02-04T00:04:02.255Z,997.08
2018-02-04T00:05:02.271Z,997.08
2018-02-04T00:06:02.282Z,997.06
2018-02-04T00:07:02.297Z,997.05
2018-02-04T00:08:02.308Z,997.09
2018-02-04T00:09:02.325Z,997.08
2018-02-04T00:10:02.339Z,997.05
2018-02-04T00:11:02.355Z,997.10
2018-02-04T00:12:02.364Z,997.06
2018-02-04T00:13:02.384Z,997.11
2018-02-04T00:14:02.391Z,997.10
2018-02-04T00:15:02.411Z,997.10
2018-02-04T00:16:02.427Z,997.08
2018-02-04T00:17:02.437Z,997.09
2018-02-04T00:18:02.455Z,997.09
2018-02-04T00:19:02.461Z,997.10
2018-02-04T00:20:02.473Z,997.08
2018-02-04T00:21:02.489Z,997.07
2018-02-04T00:22:02.502Z,997.12
2018-02-04T00:23:02.515Z,997.14
2018-02-04T00:24:02.536Z,997.10
2018-02-04T00:25:02.541Z,997.09
2018-02-04T00:26:02.562Z,997.11
2018-02-04T00:27:02.569Z,997.11
2018-02-04T00:28:02.587Z,997.07
2018-02-04T00:29:02.599Z,997.08
2018-02-04T00:30:02.606Z,997.12
2018-02-04T00:31:02.624Z,997.07
2018-02-04T00:32:02.678Z,997.11
2018-02-04T00:33:02.653Z,997.07
2018-02-04T00:34:02.663Z,997.08
2018-02-04T00:35:02.673Z,997.08
2018-02-04T00:36:02.690Z,997.07
2018-02-04T00:37:02.704Z,997.08
2018-02-04T00:38:02.722Z,997.03
2018-02-04T00:39:02.737Z,997.05
2018-02-04T00:40:02.751Z,997.04
2018-02-04T00:41:02.766Z,997.06
2018-02-04T00:42:02.781Z,997.05
2018-02-04T00:43:02.790Z,997.03
2018-02-04T00:44:02.803Z,997.01
2018-02-04T00:45:02.817Z,997.03
2018-02-04T00:46:02.830Z,997.05
2018-02-04T00:47:02.842Z,997.05
2018-02-04T00:48:02.853Z,997.04
2018-02-04T00:49:02.868Z,997.06
2018-02-04T00:50:02.884Z,997.06
2018-02-04T00:51:02.895Z,997.09
2018-02-04T00:52:02.910Z,997.09
2018-02-04T00:53:02.960Z,997.14
2018-02-04T00:54:02.938Z,997.13
2018-02-04T00:55:02.954Z,997.13
2018-02-04T00:56:02.971Z,997.14
2018-02-04T00:57:02.980Z,997.16
2018-02-04T00:58:02.998Z,997.15
2018-02-04T00:59:03.004Z,997.21
2018-02-04T01:00:03.021Z,997.19
2018-02-04T01:01:03.031Z,997.14
2018-02-04T01:02:03.048Z,997.20
2018-02-04T01:03:03.059Z,997.18
2018-02-04T01:04:03.074Z,997.19
2018-02-04T01:05:03.086Z,997.22
2018-02-04T01:06:03.098Z,997.19
2018-02-04T01:07:03.114Z,997.26
2018-02-04T01:08:03.127Z,997.20
2018-02-04T01:09:03.138Z,997.24
2018-02-04T01:10:03.156Z,997.27
2018-02-04T01:11:03.171Z,997.25
2018-02-04T01:12:03.186Z,997.27
2018-02-04T01:13:03.203Z,997.29
2018-02-04T01:14:03.209Z,997.30
2018-02-04T01:15:03.221Z,997.30
2018-02-04T01:16:03.234Z,997.31
2018-02-04T01:17:03.251Z,997.30
2018-02-04T01:18:03.265Z,997.31
2018-02-04T01:19:03.320Z,997.32
2018-02-04T01:20:03.289Z,997.31
2018-02-04T01:21:03.305Z,997.31
2018-02-04T01:22:03.315Z,997.31
2018-02-04T01:23:03.332Z,997.35
2018-02-04T01:24:03.345Z,997.31
2018-02-04T01:25:03.360Z,997.33
2018-02-04T01:26:03.373Z,997.36
2018-02-04T01:27:03.385Z,997.37
2018-02-04T01:28:03.400Z,997.38
2018-02-04T01:29:03.413Z,997.42
2018-02-04T01:30:03.428Z,997.46
2018-02-04T01:31:03.442Z,997.42
2018-02-04T01:32:03.453Z,997.46
2018-02-04T01:33:03.474Z,997.45
2018-02-04T01:34:03.488Z,997.45
2018-02-04T01:35:03.494Z,997.45
2018-02-04T01:36:03.514Z,997.46
2018-02-04T01:37:03.520Z,997.49
2018-02-04T01:38:03.541Z,997.50
2018-02-04T01:39:03.566Z,997.48
2018-02-04T01:40:03.573Z,997.47
2018-02-04T01:41:03.575Z,997.46
2018-02-04T01:42:03.600Z,997.50
2018-02-04T01:43:03.607Z,997.52
2018-02-04T01:44:03.617Z,997.54
2018-02-04T01:45:03.630Z,997.52
2018-02-04T01:46:03.640Z,997.55
2018-02-04T01:47:03.664Z,997.51
2018-02-04T01:48:03.672Z,997.55
2018-02-04T01:49:03.690Z,997.55
2018-02-04T01:50:03.694Z,997.58
2018-02-04T01:51:03.714Z,997.54
2018-02-04T01:52:03.731Z,997.51
2018-02-04T01:53:03.740Z,997.55
2018-02-04T01:54:03.756Z,997.59
2018-02-04T01:55:03.767Z,997.55
2018-02-04T01:56:03.782Z,997.57
2018-02-04T01:57:03.799Z,997.56
2018-02-04T01:58:03.813Z,997.58
2018-02-04T01:59:03.821Z,997.59
2018-02-04T02:00:03.836Z,997.60
2018-02-04T02:01:03.848Z,997.60
2018-02-04T02:02:03.868Z,997.54
2018-02-04T02:03:03.875Z,997.59
2018-02-04T02:04:03.893Z,997.59
2018-02-04T02:05:03.906Z,997.58
2018-02-04T02:06:03.913Z,997.59
2018-02-04T02:07:03.923Z,997.61
2018-02-04T02:08:03.957Z,997.55
2018-02-04T02:09:03.955Z,997.61
2018-02-04T02:10:03.971Z,997.62
2018-02-04T02:11:03.993Z,997.61
2018-02-04T02:12:04.006Z,997.59
2018-02-04T02:13:04.014Z,997.61
2018-02-04T02:14:04.030Z,997.59
2018-02-04T02:15:04.040Z,997.61
2018-02-04T02:16:04.053Z,997.67
2018-02-04T02:17:04.080Z,997.65
2018-02-04T02:18:04.078Z,997.68
2018-02-04T02:19:04.101Z,997.71
2018-02-04T02:20:04.107Z,997.71
2018-02-04T02:21:04.118Z,997.68
2018-02-04T02:22:04.135Z,997.69
2018-02-04T02:23:04.162Z,997.75
2018-02-04T02:24:04.161Z,997.74
2018-02-04T02:25:04.176Z,997.74
2018-02-04T02:26:04.188Z,997.77
2018-02-04T02:27:04.206Z,997.72
2018-02-04T02:28:04.214Z,997.76
2018-02-04T02:29:04.231Z,997.77
2018-02-04T02:30:04.244Z,997.79
2018-02-04T02:31:04.267Z,997.78
2018-02-04T02:32:04.273Z,997.77
2018-02-04T02:33:04.281Z,997.78
2018-02-04T02:34:04.295Z,997.80
2018-02-04T02:35:04.337Z,997.81
2018-02-04T02:36:04.317Z,997.83
2018-02-04T02:37:04.341Z,997.84
2018-02-04T02:38:04.350Z,997.82
2018-02-04T02:39:04.387Z,997.85
2018-02-04T02:40:04.381Z,997.85
2018-02-04T02:41:04.393Z,997.87
2018-02-04T02:42:04.404Z,997.87
2018-02-04T02:43:04.423Z,997.87
2018-02-04T02:44:04.434Z,997.89
2018-02-04T02:45:04.447Z,997.90
2018-02-04T02:46:04.463Z,997.90
2018-02-04T02:47:04.471Z,997.94
2018-02-04T02:48:04.485Z,997.95
2018-02-04T02:49:04.498Z,997.93
2018-02-04T02:50:04.509Z,997.93
2018-02-04T02:51:04.527Z,997.93
2018-02-04T02:52:04.569Z,997.97
2018-02-04T02:53:04.554Z,997.99
2018-02-04T02:54:04.570Z,997.99
2018-02-04T02:55:04.580Z,998.03
2018-02-04T02:56:04.595Z,997.99
2018-02-04T02:57:04.609Z,998.00
2018-02-04T02:58:04.622Z,998.01
2018-02-04T02:59:04.639Z,998.05
2018-02-04T03:00:04.649Z,998.09
2018-02-04T03:01:04.661Z,998.08
2018-02-04T03:02:04.673Z,998.09
2018-02-04T03:03:04.689Z,998.13
2018-02-04T03:04:04.699Z,998.11
2018-02-04T03:05:04.715Z,998.09
2018-02-04T03:06:04.726Z,998.12
2018-02-04T03:07:04.742Z,998.17
2018-02-04T03:08:04.762Z,998.16
2018-02-04T03:09:04.779Z,998.15
2018-02-04T03:10:04.786Z,998.16
2018-02-04T03:11:04.809Z,998.17
2018-02-04T03:12:04.816Z,998.14
2018-02-04T03:13:04.824Z,998.14
2018-02-04T03:14:04.847Z,998.14
2018-02-04T03:15:04.853Z,998.13
2018-02-04T03:16:04.869Z,998.16
2018-02-04T03:17:04.877Z,998.13
2018-02-04T03:18:04.890Z,998.18
2018-02-04T03:19:04.902Z,998.17
2018-02-04T03:20:04.920Z,998.24
2018-02-04T03:21:04.935Z,998.16
2018-02-04T03:22:04.947Z,998.16
2018-02-04T03:23:04.966Z,998.16
2018-02-04T03:24:04.984Z,998.17
2018-02-04T03:25:04.987Z,998.16
2018-02-04T03:26:05.001Z,998.17
2018-02-04T03:27:05.014Z,998.21
2018-02-04T03:28:05.053Z,998.22
2018-02-04T03:29:05.038Z,998.23
2018-02-04T03:30:05.051Z,998.28
2018-02-04T03:31:05.069Z,998.26
2018-02-04T03:32:05.079Z,998.26
2018-02-04T03:33:05.096Z,998.28
2018-02-04T03:34:05.104Z,998.30
2018-02-04T03:35:05.126Z,998.30
2018-02-04T03:36:05.150Z,998.27
2018-02-04T03:37:05.155Z,998.31
2018-02-04T03:38:05.163Z,998.34
2018-02-04T03:39:05.179Z,998.32
2018-02-04T03:40:05.195Z,998.31
2018-02-04T03:41:05.215Z,998.33
2018-02-04T03:42:05.222Z,998.34
2018-02-04T03:43:05.230Z,998.38
2018-02-04T03:44:05.245Z,998.39
2018-02-04T03:45:05.265Z,998.42
2018-02-04T03:46:05.279Z,998.42
2018-02-04T03:47:05.282Z,998.43
2018-02-04T03:48:05.318Z,998.42
2018-02-04T03:49:05.308Z,998.41
2018-02-04T03:50:05.319Z,998.43
2018-02-04T03:51:05.335Z,998.42
2018-02-04T03:52:05.363Z,998.43
2018-02-04T03:53:05.366Z,998.45
2018-02-04T03:54:05.383Z,998.46
2018-02-04T03:55:05.398Z,998.50
2018-02-04T03:56:05.407Z,998.54
2018-02-04T03:57:05.420Z,998.53
2018-02-04T03:58:05.438Z,998.52
2018-02-04T03:59:05.448Z,998.55
2018-02-04T04:00:05.461Z,998.57
2018-02-04T04:01:05.481Z,998.57
2018-02-04T04:02:05.481Z,998.58
2018-02-04T04:03:05.521Z,998.58
2018-02-04T04:04:05.514Z,998.58
2018-02-04T04:05:05.556Z,998.58
2018-02-04T04:06:05.595Z,998.58
2018-02-04T04:07:05.556Z,998.58
2018-02-04T04:08:05.566Z,998.54
2018-02-04T04:09:05.585Z,998.54
2018-02-04T04:10:05.599Z,998.58
2018-02-04T04:11:05.610Z,998.57
2018-02-04T04:12:05.626Z,998.54
2018-02-04T04:13:05.665Z,998.55
2018-02-04T04:14:05.649Z,998.61
2018-02-04T04:15:05.663Z,998.57
2018-02-04T04:16:05.678Z,998.61
2018-02-04T04:17:05.690Z,998.57
2018-02-04T04:18:05.711Z,998.61
2018-02-04T04:19:05.717Z,998.61
2018-02-04T04:20:05.732Z,998.61
2018-02-04T04:21:05.746Z,998.64
2018-02-04T04:22:05.762Z,998.68
2018-02-04T04:23:05.771Z,998.66
2018-02-04T04:24:05.786Z,998.64
2018-02-04T04:25:05.802Z,998.67
2018-02-04T04:26:05.820Z,998.69
2018-02-04T04:27:05.824Z,998.67
2018-02-04T04:28:05.833Z,998.67
2018-02-04T04:29:05.852Z,998.65
2018-02-04T04:30:05.865Z,998.67
2018-02-04T04:31:05.887Z,998.67
2018-02-04T04:32:05.908Z,998.71
2018-02-04T04:33:05.907Z,998.70
2018-02-04T04:34:05.927Z,998.71
2018-02-04T04:35:05.933Z,998.73
2018-02-04T04:36:05.949Z,998.73
2018-02-04T04:37:05.954Z,998.77
2018-02-04T04:38:05.975Z,998.76
2018-02-04T04:39:06.024Z,998.75
2018-02-04T04:40:06.001Z,998.77
2018-02-04T04:41:06.021Z,998.76
2018-02-04T04:42:06.039Z,998.78
2018-02-04T04:43:06.042Z,998.75
2018-02-04T04:44:06.054Z,998.78
2018-02-04T04:45:06.068Z,998.79
2018-02-04T04:46:06.091Z,998.80
2018-02-04T04:47:06.100Z,998.82
2018-02-04T04:48:06.120Z,998.79
2018-02-04T04:49:06.130Z,998.78
2018-02-04T04:50:06.135Z,998.86
2018-02-04T04:51:06.150Z,998.83
2018-02-04T04:52:06.160Z,998.88
2018-02-04T04:53:06.177Z,998.85
2018-02-04T04:54:06.196Z,998.85
2018-02-04T04:55:06.208Z,998.87
2018-02-04T04:56:06.221Z,998.86
2018-02-04T04:57:06.230Z,998.89
2018-02-04T04:58:06.243Z,998.85
2018-02-04T04:59:06.254Z,998.83
2018-02-04T05:00:06.268Z,998.84
2018-02-04T05:01:06.283Z,998.86
2018-02-04T05:02:06.294Z,998.85
2018-02-04T05:03:06.318Z,998.88
2018-02-04T05:04:06.326Z,998.90
2018-02-04T05:05:06.332Z,998.86
2018-02-04T05:06:06.349Z,998.89
2018-02-04T05:07:06.364Z,998.97
2018-02-04T05:08:06.379Z,998.94
2018-02-04T05:09:06.397Z,999.00
2018-02-04T05:10:06.404Z,999.02
2018-02-04T05:11:06.429Z,999.04
2018-02-04T05:12:06.429Z,999.06
2018-02-04T05:13:06.443Z,999.08
2018-02-04T05:14:06.476Z,999.07
2018-02-04T05:15:06.471Z,999.10
2018-02-04T05:16:06.488Z,999.08
2018-02-04T05:17:06.511Z,999.10
2018-02-04T05:18:06.547Z,999.14
2018-02-04T05:19:06.526Z,999.16
2018-02-04T05:20:06.539Z,999.16
2018-02-04T05:21:06.555Z,999.16
2018-02-04T05:22:06.567Z,999.16
2018-02-04T05:23:06.579Z,999.15
2018-02-04T05:24:06.592Z,999.19
2018-02-04T05:25:06.607Z,999.18
2018-02-04T05:26:06.618Z,999.23
2018-02-04T05:27:06.635Z,999.24
2018-02-04T05:28:06.645Z,999.23
2018-02-04T05:29:06.655Z,999.25
2018-02-04T05:30:06.672Z,999.22
2018-02-04T05:31:06.685Z,999.23
2018-02-04T05:32:06.733Z,999.21
2018-02-04T05:33:06.713Z,999.23
2018-02-04T05:34:06.727Z,999.24
2018-02-04T05:35:06.736Z,999.23
2018-02-04T05:36:06.752Z,999.27
2018-02-04T05:37:06.766Z,999.27
2018-02-04T05:38:06.789Z,999.27
2018-02-04T05:39:06.793Z,999.27
2018-02-04T05:40:06.811Z,999.27
2018-02-04T05:41:06.824Z,999.29
2018-02-04T05:42:06.829Z,999.34
2018-02-04T05:43:06.847Z,999.32
2018-02-04T05:44:06.858Z,999.33
2018-02-04T05:45:06.875Z,999.39
2018-02-04T05:46:06.887Z,999.39
2018-02-04T05:47:06.902Z,999.45
2018-02-04T05:48:06.914Z,999.46
2018-02-04T05:49:06.933Z,999.49
2018-02-04T05:50:06.938Z,999.48
2018-02-04T05:51:07.000Z,999.50
2018-02-04T05:52:06.967Z,999.52
2018-02-04T05:53:06.981Z,999.53
2018-02-04T05:54:06.990Z,999.55
2018-02-04T05:55:07.005Z,999.55
2018-02-04T05:56:07.018Z,999.55
2018-02-04T05:57:07.035Z,999.55
2018-02-04T05:58:07.047Z,999.63
2018-02-04T05:59:07.064Z,999.63
2018-02-04T06:00:07.074Z,999.65
2018-02-04T06:01:07.086Z,999.67
2018-02-04T06:02:07.098Z,999.69
2018-02-04T06:03:07.113Z,999.73
2018-02-04T06:04:07.131Z,999.74
2018-02-04T06:05:07.137Z,999.76
2018-02-04T06:06:07.153Z,999.78
2018-02-04T06:07:07.170Z,999.79
2018-02-04T06:08:07.182Z,999.80
2018-02-04T06:09:07.194Z,999.83
2018-02-04T06:10:07.210Z,999.84
2018-02-04T06:11:07.227Z,999.89
2018-02-04T06:12:07.233Z,999.89
2018-02-04T06:13:07.248Z,999.91
2018-02-04T06:14:07.256Z,999.92
2018-02-04T06:15:07.277Z,999.92
2018-02-04T06:16:07.298Z,999.91
2018-02-04T06:17:07.303Z,999.94
2018-02-04T06:18:07.330Z,999.95
2018-02-04T06:19:07.331Z,999.98
2018-02-04T06:20:07.343Z,999.97
2018-02-04T06:21:07.352Z,1000.00
2018-02-04T06:22:07.370Z,1000.01
2018-02-04T06:23:07.380Z,1000.01
2018-02-04T06:24:07.399Z,999.99
2018-02-04T06:25:07.409Z,1000.00
2018-02-04T06:26:07.419Z,1000.01
2018-02-04T06:27:07.438Z,1000.02
2018-02-04T06:28:07.447Z,1000.03
2018-02-04T06:29:07.462Z,1000.00
2018-02-04T06:30:07.474Z,1000.04
2018-02-04T06:31:07.489Z,1000.08
2018-02-04T06:32:07.513Z,1000.08
2018-02-04T06:33:07.514Z,1000.08
2018-02-04T06:34:07.534Z,1000.14
2018-02-04T06:35:07.551Z,1000.17
2018-02-04T06:36:07.565Z,1000.19
2018-02-04T06:37:07.567Z,1000.19
2018-02-04T06:38:07.582Z,1000.24
2018-02-04T06:39:07.597Z,1000.24
2018-02-04T06:40:07.629Z,1000.22
2018-02-04T06:41:07.623Z,1000.25
2018-02-04T06:42:07.635Z,1000.24
2018-02-04T06:43:07.644Z,1000.26
2018-02-04T06:44:07.696Z,1000.28
2018-02-04T06:45:07.677Z,1000.28
2018-02-04T06:46:07.691Z,1000.31
2018-02-04T06:47:07.707Z,1000.28
2018-02-04T06:48:07.717Z,1000.27
2018-02-04T06:49:07.730Z,1000.30
2018-02-04T06:50:07.755Z,1000.32
2018-02-04T06:51:07.758Z,1000.30
2018-02-04T06:52:07.769Z,1000.28
2018-02-04T06:53:07.787Z,1000.30
2018-02-04T06:54:07.804Z,1000.33
2018-02-04T06:55:07.817Z,1000.33
2018-02-04T06:56:07.833Z,1000.39
2018-02-04T06:57:07.850Z,1000.39
2018-02-04T06:58:07.850Z,1000.42
2018-02-04T06:59:07.863Z,1000.43
2018-02-04T07:00:07.880Z,1000.47
2018-02-04T07:01:07.900Z,1000.44
2018-02-04T07:02:07.913Z,1000.48
2018-02-04T07:03:07.921Z,1000.45
2018-02-04T07:04:07.948Z,1000.51
2018-02-04T07:05:07.948Z,1000.53
2018-02-04T07:06:07.965Z,1000.48
2018-02-04T07:07:07.969Z,1000.47
2018-02-04T07:08:07.985Z,1000.51
2018-02-04T07:09:07.996Z,1000.50
2018-02-04T07:10:08.014Z,1000.50
2018-02-04T07:11:08.050Z,1000.54
2018-02-04T07:12:08.039Z,1000.54
2018-02-04T07:13:08.055Z,1000.56
2018-02-04T07:14:08.068Z,1000.64
2018-02-04T07:15:08.081Z,1000.63
2018-02-04T07:16:08.088Z,1000.61
2018-02-04T07:17:08.107Z,1000.68
2018-02-04T07:18:08.119Z,1000.68
2018-02-04T07:19:08.143Z,1000.67
2018-02-04T07:20:08.146Z,1000.69
2018-02-04T07:21:08.165Z,1000.70
2018-02-04T07:22:08.178Z,1000.73
2018-02-04T07:23:08.190Z,1000.76
2018-02-04T07:24:08.201Z,1000.79
2018-02-04T07:25:08.209Z,1000.76
2018-02-04T07:26:08.235Z,1000.80
2018-02-04T07:27:08.242Z,1000.79
2018-02-04T07:28:08.259Z,1000.84
2018-02-04T07:29:08.306Z,1000.84
2018-02-04T07:30:08.283Z,1000.84
2018-02-04T07:31:08.316Z,1000.84
2018-02-04T07:32:08.312Z,1000.85
2018-02-04T07:33:08.328Z,1000.86
2018-02-04T07:34:08.342Z,1000.87
2018-02-04T07:35:08.351Z,1000.89
2018-02-04T07:36:08.362Z,1000.92
2018-02-04T07:37:08.375Z,1000.94
2018-02-04T07:38:08.390Z,1000.91
2018-02-04T07:39:08.403Z,1000.95
2018-02-04T07:40:08.429Z,1000.96
2018-02-04T07:41:08.431Z,1000.96
2018-02-04T07:42:08.444Z,1000.96
2018-02-04T07:43:08.458Z,1000.99
2018-02-04T07:44:08.478Z,1001.02
2018-02-04T07:45:08.486Z,1001.01
2018-02-04T07:46:08.499Z,1001.07
2018-02-04T07:47:08.515Z,1001.07
2018-02-04T07:48:08.533Z,1001.08
2018-02-04T07:49:08.539Z,1001.06
2018-02-04T07:50:08.555Z,1001.10
2018-02-04T07:51:08.630Z,1001.15
2018-02-04T07:52:08.581Z,1001.15
2018-02-04T07:53:08.596Z,1001.17
2018-02-04T07:54:08.610Z,1001.17
2018-02-04T07:55:08.619Z,1001.15
2018-02-04T07:56:08.630Z,1001.19
2018-02-04T07:57:08.651Z,1001.20
2018-02-04T07:58:08.663Z,1001.19
2018-02-04T07:59:08.678Z,1001.23
2018-02-04T08:00:08.694Z,1001.20
2018-02-04T08:01:08.707Z,1001.22
2018-02-04T08:02:08.717Z,1001.21
2018-02-04T08:03:08.727Z,1001.22
2018-02-04T08:04:08.748Z,1001.24
2018-02-04T08:05:08.760Z,1001.24
2018-02-04T08:06:08.771Z,1001.25
2018-02-04T08:07:08.853Z,1001.26
2018-02-04T08:08:08.808Z,1001.26
2018-02-04T08:09:08.820Z,1001.29
2018-02-04T08:10:08.889Z,1001.27
2018-02-04T08:11:08.845Z,1001.28
2018-02-04T08:12:08.859Z,1001.29
2018-02-04T08:13:08.871Z,1001.33
2018-02-04T08:14:08.892Z,1001.36
2018-02-04T08:15:08.898Z,1001.33
2018-02-04T08:16:08.914Z,1001.35
2018-02-04T08:17:08.928Z,1001.35
2018-02-04T08:18:08.950Z,1001.40
2018-02-04T08:19:08.953Z,1001.38
2018-02-04T08:20:08.966Z,1001.39
2018-02-04T08:21:08.982Z,1001.39
2018-02-04T08:22:08.990Z,1001.41
2018-02-04T08:23:09.010Z,1001.42
2018-02-04T08:24:09.024Z,1001.43
2018-02-04T08:25:09.036Z,1001.42
2018-02-04T08:26:09.055Z,1001.39
2018-02-04T08:27:09.076Z,1001.45
2018-02-04T08:28:09.092Z,1001.45
2018-02-04T08:29:09.094Z,1001.47
2018-02-04T08:30:09.106Z,1001.44
2018-02-04T08:31:09.122Z,1001.46
2018-02-04T08:32:09.140Z,1001.46
2018-02-04T08:33:09.150Z,1001.45
2018-02-04T08:34:09.158Z,1001.53
2018-02-04T08:35:09.182Z,1001.48
2018-02-04T08:36:09.189Z,1001.48
2018-02-04T08:37:09.206Z,1001.51
2018-02-04T08:38:09.220Z,1001.55
2018-02-04T08:39:09.233Z,1001.54
2018-02-04T08:40:09.253Z,1001.51
2018-02-04T08:41:09.261Z,1001.54
2018-02-04T08:42:09.274Z,1001.52
2018-02-04T08:43:09.290Z,1001.52
2018-02-04T08:44:09.312Z,1001.57
2018-02-04T08:45:09.317Z,1001.57
2018-02-04T08:46:09.330Z,1001.57
2018-02-04T08:47:09.346Z,1001.59
2018-02-04T08:48:09.360Z,1001.59
2018-02-04T08:49:09.373Z,1001.63
2018-02-04T08:50:09.392Z,1001.63
2018-02-04T08:51:09.400Z,1001.63
2018-02-04T08:52:09.424Z,1001.70
2018-02-04T08:53:09.432Z,1001.65
2018-02-04T08:54:09.444Z,1001.68
2018-02-04T08:55:09.475Z,1001.71
2018-02-04T08:56:09.488Z,1001.68
2018-02-04T08:57:09.482Z,1001.68
2018-02-04T08:58:09.502Z,1001.75
2018-02-04T08:59:09.516Z,1001.75
2018-02-04T09:00:09.528Z,1001.74
2018-02-04T09:01:09.553Z,1001.71
2018-02-04T09:02:09.557Z,1001.72
2018-02-04T09:03:09.572Z,1001.70
2018-02-04T09:04:09.607Z,1001.72
2018-02-04T09:05:09.600Z,1001.77
2018-02-04T09:06:09.613Z,1001.75
2018-02-04T09:07:09.636Z,1001.74
2018-02-04T09:08:09.658Z,1001.74
2018-02-04T09:09:09.658Z,1001.77
2018-02-04T09:10:09.671Z,1001.80
2018-02-04T09:11:09.686Z,1001.79
2018-02-04T09:12:09.701Z,1001.83
2018-02-04T09:13:09.711Z,1001.84
2018-02-04T09:14:09.724Z,1001.80
2018-02-04T09:15:09.739Z,1001.86
2018-02-04T09:16:09.756Z,1001.86
2018-02-04T09:17:09.768Z,1001.91
2018-02-04T09:18:09.793Z,1001.88
2018-02-04T09:19:09.809Z,1001.87
2018-02-04T09:20:09.813Z,1001.86
2018-02-04T09:21:09.827Z,1001.89
2018-02-04T09:22:09.843Z,1001.91
2018-02-04T09:23:09.860Z,1001.91
2018-02-04T09:24:09.873Z,1001.95
2018-02-04T09:25:09.884Z,1001.94
2018-02-04T09:26:09.899Z,1001.96
2018-02-04T09:27:09.915Z,1001.98
2018-02-04T09:28:09.931Z,1001.99
2018-02-04T09:29:09.955Z,1001.96
2018-02-04T09:30:09.953Z,1001.98
2018-02-04T09:31:09.969Z,1001.98
2018-02-04T09:32:09.983Z,1002.02
2018-02-04T09:33:10.004Z,1002.00
2018-02-04T09:34:10.015Z,1001.99
2018-02-04T09:35:10.040Z,1002.01
2018-02-04T09:36:10.047Z,1002.03
2018-02-04T09:37:10.058Z,1002.08
2018-02-04T09:38:10.075Z,1002.06
2018-02-04T09:39:10.083Z,1002.10
2018-02-04T09:40:10.115Z,1002.10
2018-02-04T09:41:10.134Z,1002.07
2018-02-04T09:42:10.126Z,1002.09
2018-02-04T09:43:10.142Z,1002.13
2018-02-04T09:44:10.158Z,1002.12
2018-02-04T09:45:10.174Z,1002.15
2018-02-04T09:46:10.186Z,1002.14
2018-02-04T09:47:10.206Z,1002.15
2018-02-04T09:48:10.220Z,1002.15
2018-02-04T09:49:10.252Z,1002.18
2018-02-04T09:50:10.252Z,1002.18
2018-02-04T09:51:10.264Z,1002.18
2018-02-04T09:52:10.282Z,1002.18
2018-02-04T09:53:10.297Z,1002.20
2018-02-04T09:54:10.303Z,1002.23
2018-02-04T09:55:10.320Z,1002.21
2018-02-04T09:56:10.361Z,1002.22
2018-02-04T09:57:10.346Z,1002.25
2018-02-04T09:58:10.367Z,1002.28
2018-02-04T09:59:10.379Z,1002.28
2018-02-04T10:00:10.392Z,1002.35
2018-02-04T10:01:10.409Z,1002.28
2018-02-04T10:02:10.421Z,1002.30
2018-02-04T10:03:10.436Z,1002.29
2018-02-04T10:04:10.452Z,1002.34
2018-02-04T10:05:10.479Z,1002.36
2018-02-04T10:06:10.482Z,1002.35
2018-02-04T10:07:10.492Z,1002.38
2018-02-04T10:08:10.504Z,1002.40
2018-02-04T10:09:10.520Z,1002.41
2018-02-04T10:10:10.537Z,1002.44
2018-02-04T10:11:10.555Z,1002.41
2018-02-04T10:12:10.567Z,1002.46
2018-02-04T10:13:10.581Z,1002.45
2018-02-04T10:14:10.598Z,1002.44
2018-02-04T10:15:10.612Z,1002.47
2018-02-04T10:16:10.625Z,1002.46
2018-02-04T10:17:10.639Z,1002.47
2018-02-04T10:18:10.654Z,1002.46
2018-02-04T10:19:10.687Z,1002.50
2018-02-04T10:20:10.683Z,1002.48
2018-02-04T10:21:10.691Z,1002.53
2018-02-04T10:22:10.713Z,1002.47
2018-02-04T10:23:10.731Z,1002.49
2018-02-04T10:24:10.739Z,1002.51
2018-02-04T10:25:10.754Z,1002.50
2018-02-04T10:26:10.770Z,1002.52
2018-02-04T10:27:10.784Z,1002.56
2018-02-04T10:28:10.800Z,1002.57
2018-02-04T10:29:10.817Z,1002.55
2018-02-04T10:30:10.842Z,1002.57
2018-02-04T10:31:10.852Z,1002.57
2018-02-04T10:32:10.853Z,1002.60
2018-02-04T10:33:10.870Z,1002.60
2018-02-04T10:34:10.883Z,1002.59
2018-02-04T10:35:10.898Z,1002.67
2018-02-04T10:36:10.916Z,1002.65
2018-02-04T10:37:10.924Z,1002.63
2018-02-04T10:38:10.940Z,1002.67
2018-02-04T10:39:10.952Z,1002.70
2018-02-04T10:40:10.977Z,1002.70
2018-02-04T10:41:10.986Z,1002.73
2018-02-04T10:42:11.026Z,1002.74
2018-02-04T10:43:11.013Z,1002.81
2018-02-04T10:44:11.032Z,1002.79
2018-02-04T10:45:11.041Z,1002.83
2018-02-04T10:46:11.057Z,1002.84
2018-02-04T10:47:11.070Z,1002.86
2018-02-04T10:48:11.082Z,1002.88
2018-02-04T10:49:11.099Z,1002.89
2018-02-04T10:50:11.111Z,1002.91
2018-02-04T10:51:11.126Z,1002.88
2018-02-04T10:52:11.138Z,1002.93
2018-02-04T10:53:11.155Z,1002.94
2018-02-04T10:54:11.165Z,1002.98
2018-02-04T10:55:11.191Z,1003.00
2018-02-04T10:56:11.197Z,1003.01
2018-02-04T10:57:11.213Z,1003.02
2018-02-04T10:58:11.223Z,1003.04
2018-02-04T10:59:11.251Z,1003.05
2018-02-04T11:00:11.253Z,1003.05
2018-02-04T11:01:11.267Z,1003.09
2018-02-04T11:02:11.280Z,1003.06
2018-02-04T11:03:11.294Z,1003.08
2018-02-04T11:04:11.308Z,1003.11
2018-02-04T11:05:11.323Z,1003.09
2018-02-04T11:06:11.338Z,1003.12
2018-02-04T11:07:11.355Z,1003.16
2018-02-04T11:08:11.366Z,1003.16
2018-02-04T11:09:11.379Z,1003.16
2018-02-04T11:10:11.407Z,1003.17
2018-02-04T11:11:11.410Z,1003.19
2018-02-04T11:12:11.429Z,1003.16
2018-02-04T11:13:11.451Z,1003.17
2018-02-04T11:14:11.447Z,1003.18
2018-02-04T11:15:11.457Z,1003.22
2018-02-04T11:16:11.474Z,1003.22
2018-02-04T11:17:11.486Z,1003.26
2018-02-04T11:18:11.509Z,1003.28
2018-02-04T11:19:11.516Z,1003.31
2018-02-04T11:20:11.538Z,1003.27
2018-02-04T11:21:11.542Z,1003.29
2018-02-04T11:22:11.577Z,1003.32
2018-02-04T11:23:11.570Z,1003.32
2018-02-04T11:24:11.593Z,1003.31
2018-02-04T11:25:11.599Z,1003.34
2018-02-04T11:26:11.614Z,1003.36
2018-02-04T11:27:11.641Z,1003.33
2018-02-04T11:28:11.645Z,1003.34
2018-02-04T11:29:11.666Z,1003.36
2018-02-04T11:30:11.684Z,1003.34
2018-02-04T11:31:11.684Z,1003.36
2018-02-04T11:32:11.697Z,1003.38
2018-02-04T11:33:11.715Z,1003.37
2018-02-04T11:34:11.729Z,1003.40
2018-02-04T11:35:11.742Z,1003.41
2018-02-04T11:36:11.753Z,1003.41
2018-02-04T11:37:11.767Z,1003.40
2018-02-04T11:38:11.781Z,1003.44
2018-02-04T11:39:11.796Z,1003.41
2018-02-04T11:40:11.810Z,1003.39
2018-02-04T11:41:11.822Z,1003.41
2018-02-04T11:42:11.836Z,1003.43
2018-02-04T11:43:11.853Z,1003.42
2018-02-04T11:44:11.864Z,1003.48
2018-02-04T11:45:11.882Z,1003.43
2018-02-04T11:46:11.890Z,1003.47
2018-02-04T11:47:11.897Z,1003.42
2018-02-04T11:48:11.922Z,1003.45
2018-02-04T11:49:11.944Z,1003.47
2018-02-04T11:50:11.948Z,1003.52
2018-02-04T11:51:11.958Z,1003.50
2018-02-04T11:52:11.981Z,1003.53
2018-02-04T11:53:11.989Z,1003.52
2018-02-04T11:54:12.004Z,1003.50
2018-02-04T11:55:12.016Z,1003.50
2018-02-04T11:56:12.038Z,1003.49
2018-02-04T11:57:12.048Z,1003.53
2018-02-04T11:58:12.061Z,1003.54
2018-02-04T11:59:12.072Z,1003.53
2018-02-04T12:00:12.088Z,1003.57
2018-02-04T12:01:12.101Z,1003.55
2018-02-04T12:02:12.113Z,1003.56
2018-02-04T12:03:12.130Z,1003.59
2018-02-04T12:04:12.149Z,1003.58
2018-02-04T12:05:12.159Z,1003.58
2018-02-04T12:06:12.173Z,1003.60
2018-02-04T12:07:12.185Z,1003.62
2018-02-04T12:08:12.200Z,1003.58
2018-02-04T12:09:12.213Z,1003.60
2018-02-04T12:10:12.259Z,1003.61
2018-02-04T12:11:12.237Z,1003.63
2018-02-04T12:12:12.258Z,1003.64
2018-02-04T12:13:12.272Z,1003.64
2018-02-04T12:14:12.280Z,1003.64
2018-02-04T12:15:12.303Z,1003.64
2018-02-04T12:16:12.314Z,1003.69
2018-02-04T12:17:12.334Z,1003.67